createdAt,value
2019-02-14T00:01:02.546Z,80.74
2019-02-14T00:06:07.830Z,81.28
2019-02-14T00:11:13.301Z,81.62
2019-02-14T00:16:18.758Z,81.61
2019-02-14T00:21:23.790Z,82.01
2019-02-14T00:26:28.945Z,82.09
2019-02-14T00:31:33.993Z,82.38
2019-02-14T00:36:39.042Z,82.73
2019-02-14T00:41:44.304Z,82.69
2019-02-14T00:46:49.722Z,82.88
2019-02-14T00:51:54.747Z,83.19
2019-02-14T00:56:59.795Z,83.78
2019-02-14T01:02:05.870Z,84.18
2019-02-14T01:07:10.852Z,84.51
2019-02-14T01:12:16.091Z,84.22
2019-02-14T01:17:21.338Z,84.02
2019-02-14T01:22:26.375Z,84.14
2019-02-14T01:27:31.510Z,83.78
2019-02-14T01:32:36.513Z,83.72
2019-02-14T01:37:41.619Z,83.91
2019-02-14T01:42:46.938Z,84.13
2019-02-14T01:47:51.983Z,84.01
2019-02-14T01:52:57.103Z,84.08
2019-02-14T01:58:02.314Z,83.83
2019-02-14T02:03:07.440Z,84.00
2019-02-14T02:08:12.532Z,83.94
2019-02-14T02:13:17.756Z,84.29
2019-02-14T02:18:23.023Z,84.02
2019-02-14T02:23:28.097Z,84.40
2019-02-14T02:28:33.180Z,84.57
2019-02-14T02:33:38.233Z,84.76
2019-02-14T02:38:44.398Z,84.69
2019-02-14T02:43:49.479Z,84.96
2019-02-14T02:48:54.508Z,85.08
2019-02-14T02:54:00.038Z,84.83
2019-02-14T02:59:05.538Z,84.53
2019-02-14T03:04:10.616Z,84.58
2019-02-14T03:09:16.002Z,84.03
2019-02-14T03:14:21.000Z,84.29
2019-02-14T03:19:26.505Z,84.56
2019-02-14T03:24:31.497Z,84.81
2019-02-14T03:29:36.526Z,85.04
2019-02-14T03:34:41.600Z,85.06
2019-02-14T03:39:46.729Z,85.12
2019-02-14T03:44:51.686Z,85.11
2019-02-14T03:49:56.782Z,85.56
2019-02-14T03:55:01.853Z,85.43
2019-02-14T04:00:10.104Z,85.45
2019-02-14T04:05:15.486Z,85.28
2019-02-14T04:10:20.536Z,85.57
2019-02-14T04:15:25.536Z,85.81
2019-02-14T04:20:30.924Z,86.00
2019-02-14T04:25:36.054Z,86.00
2019-02-14T04:30:41.497Z,85.93
2019-02-14T04:35:47.721Z,86.36
2019-02-14T04:40:52.746Z,86.55
2019-02-14T04:45:57.864Z,86.76
2019-02-14T04:51:02.921Z,86.79
2019-02-14T04:56:08.072Z,86.53
2019-02-14T05:01:13.167Z,86.33
2019-02-14T05:06:18.171Z,86.26
2019-02-14T05:11:23.224Z,86.56
2019-02-14T05:16:28.290Z,86.61
2019-02-14T05:21:33.410Z,86.78
2019-02-14T05:26:38.482Z,86.60
2019-02-14T05:31:43.516Z,86.93
2019-02-14T05:36:53.694Z,87.42
2019-02-14T05:42:05.122Z,87.68
2019-02-14T05:47:10.466Z,87.90
2019-02-14T05:52:15.526Z,87.71
2019-02-14T05:57:20.568Z,87.90
2019-02-14T06:02:25.668Z,88.33
2019-02-14T06:07:30.838Z,88.51
2019-02-14T06:12:35.991Z,88.90
2019-02-14T06:17:41.575Z,88.43
2019-02-14T06:22:47.762Z,88.29
2019-02-14T06:27:52.977Z,88.30
2019-02-14T06:32:59.021Z,88.45
2019-02-14T06:38:04.060Z,88.54
2019-02-14T06:43:09.084Z,89.06
2019-02-14T06:48:15.127Z,88.91
2019-02-14T06:53:20.250Z,88.11
2019-02-14T06:58:26.668Z,88.43
2019-02-14T07:03:32.108Z,88.24
2019-02-14T07:08:37.354Z,87.88
2019-02-14T07:13:45.111Z,88.15
2019-02-14T07:18:50.811Z,88.82
2019-02-14T07:23:57.184Z,88.36
2019-02-14T07:29:02.574Z,87.50
2019-02-14T07:34:10.003Z,87.12
2019-02-14T07:39:15.258Z,86.33
2019-02-14T07:44:20.374Z,85.53
2019-02-14T07:49:25.676Z,84.98
2019-02-14T07:54:30.941Z,84.41
2019-02-14T07:59:36.182Z,84.16
2019-02-14T08:04:41.314Z,84.30
2019-02-14T08:09:46.506Z,83.95
2019-02-14T08:14:51.913Z,82.95
2019-02-14T08:19:57.250Z,83.34
2019-02-14T08:25:02.577Z,83.24
2019-02-14T08:30:09.582Z,83.14
2019-02-14T08:35:14.909Z,82.18
2019-02-14T08:40:23.276Z,81.47
2019-02-14T08:45:28.427Z,81.22
2019-02-14T08:50:33.750Z,81.22
2019-02-14T08:55:39.326Z,80.31
2019-02-14T09:00:44.872Z,80.59
2019-02-14T09:05:50.255Z,79.59
2019-02-14T09:10:55.524Z,78.84
2019-02-14T09:16:00.929Z,78.48
2019-02-14T09:21:06.210Z,78.65
2019-02-14T09:26:11.816Z,77.75
2019-02-14T09:31:17.178Z,76.73
2019-02-14T09:36:22.476Z,76.42
2019-02-14T09:41:27.792Z,75.76
2019-02-14T09:46:32.934Z,75.67
2019-02-14T09:51:38.105Z,75.14
2019-02-14T09:56:43.247Z,74.40
2019-02-14T10:01:48.423Z,74.02
2019-02-14T10:06:53.969Z,73.60
2019-02-14T10:11:59.348Z,71.45
2019-02-14T10:17:05.512Z,62.52
2019-02-14T10:22:10.750Z,52.24
2019-02-14T10:27:15.947Z,43.64
2019-02-14T10:32:21.108Z,37.78
2019-02-14T10:37:26.271Z,36.84
2019-02-14T10:42:31.527Z,37.91
2019-02-14T10:47:36.567Z,37.89
2019-02-14T10:52:41.673Z,38.28
2019-02-14T10:57:46.923Z,35.31
2019-02-14T11:02:53.071Z,36.69
2019-02-14T11:07:58.232Z,33.01
2019-02-14T11:13:03.473Z,31.23
2019-02-14T11:18:08.943Z,35.22
2019-02-14T11:23:14.121Z,34.39
2019-02-14T11:28:19.364Z,31.90
2019-02-14T11:33:24.666Z,31.78
2019-02-14T11:38:29.879Z,34.61
2019-02-14T11:43:34.943Z,36.40
2019-02-14T11:48:39.978Z,36.80
2019-02-14T11:53:45.164Z,34.67
2019-02-14T11:58:50.674Z,33.41
2019-02-14T12:03:55.800Z,32.98
2019-02-14T12:09:05.010Z,32.86
2019-02-14T12:14:11.440Z,31.94
2019-02-14T12:19:17.025Z,32.97
2019-02-14T12:24:23.899Z,34.59
2019-02-14T12:29:32.444Z,34.78
2019-02-14T12:34:37.956Z,33.52
2019-02-14T12:39:43.104Z,30.65
2019-02-14T12:44:47.330Z,28.12
2019-02-14T12:49:57.565Z,28.18
2019-02-14T12:55:03.283Z,28.03
2019-02-14T13:00:09.048Z,25.93
2019-02-14T13:05:13.085Z,24.94
2019-02-14T13:10:17.023Z,24.26
2019-02-14T13:15:21.451Z,24.38
2019-02-14T13:20:26.255Z,23.91
2019-02-14T13:25:33.924Z,24.74
2019-02-14T13:30:38.571Z,26.01
2019-02-14T13:36:03.416Z,27.72
2019-02-14T13:41:11.719Z,27.62
2019-02-14T13:46:17.418Z,29.40
2019-02-14T13:51:21.580Z,29.61
2019-02-14T13:56:25.633Z,30.09
2019-02-14T14:01:29.587Z,30.69
2019-02-14T14:06:33.676Z,29.75
2019-02-14T14:11:38.122Z,30.85
2019-02-14T14:16:42.442Z,31.49
2019-02-14T14:21:47.358Z,32.26
2019-02-14T14:26:51.654Z,32.78
2019-02-14T14:31:55.659Z,34.21
2019-02-14T14:36:59.570Z,38.13
2019-02-14T14:42:05.242Z,40.90
2019-02-14T14:47:15.909Z,44.15
2019-02-14T14:52:20.157Z,46.53
2019-02-14T14:57:25.090Z,47.97
2019-02-14T15:02:30.186Z,48.96
2019-02-14T15:07:36.189Z,50.54
2019-02-14T15:12:41.599Z,50.96
2019-02-14T15:17:47.050Z,50.88
2019-02-14T15:22:52.178Z,51.17
2019-02-14T15:27:57.364Z,51.33
2019-02-14T15:33:02.641Z,51.88
2019-02-14T15:38:09.850Z,52.07
2019-02-14T15:43:14.745Z,52.60
2019-02-14T15:48:19.847Z,52.56
2019-02-14T15:53:25.367Z,52.75
2019-02-14T15:58:32.914Z,53.19
2019-02-14T16:03:38.540Z,53.63
2019-02-14T16:08:46.711Z,53.27
2019-02-14T16:13:52.827Z,53.20
2019-02-14T16:18:58.596Z,53.33
2019-02-14T16:24:04.032Z,53.34
2019-02-14T16:29:09.233Z,53.53
2019-02-14T16:34:15.446Z,53.90
2019-02-14T16:39:22.954Z,54.58
2019-02-14T16:44:27.894Z,54.81
2019-02-14T16:49:33.028Z,54.94
2019-02-14T16:54:38.654Z,55.34
2019-02-14T16:59:43.923Z,55.86
2019-02-14T17:04:49.408Z,56.19
2019-02-14T17:09:55.054Z,56.99
2019-02-14T17:15:00.187Z,57.13
2019-02-14T17:20:07.268Z,57.96
2019-02-14T17:25:13.107Z,57.90
2019-02-14T17:30:18.623Z,58.46
2019-02-14T17:35:23.656Z,58.97
2019-02-14T17:40:28.760Z,59.41
2019-02-14T17:45:33.893Z,59.23
2019-02-14T17:50:39.324Z,59.47
2019-02-14T17:55:46.428Z,59.73
2019-02-14T18:00:51.791Z,60.05
2019-02-14T18:05:57.222Z,59.94
2019-02-14T18:11:02.271Z,60.17
2019-02-14T18:16:08.518Z,60.63
2019-02-14T18:21:15.330Z,60.80
2019-02-14T18:26:20.717Z,61.22
2019-02-14T18:31:26.216Z,61.29
2019-02-14T18:36:31.395Z,61.46
2019-02-14T18:41:36.480Z,61.75
2019-02-14T18:46:41.895Z,61.94
2019-02-14T18:51:47.059Z,62.51
2019-02-14T18:56:52.343Z,62.82
2019-02-14T19:01:57.426Z,62.95
2019-02-14T19:07:02.568Z,63.23
2019-02-14T19:12:09.063Z,63.40
2019-02-14T19:17:14.255Z,63.69
2019-02-14T19:22:19.928Z,63.89
2019-02-14T19:27:25.416Z,64.01
2019-02-14T19:32:31.588Z,64.54
2019-02-14T19:37:36.812Z,64.79
2019-02-14T19:42:42.395Z,64.74
2019-02-14T19:47:47.854Z,65.05
2019-02-14T19:52:53.367Z,65.27
2019-02-14T19:57:59.447Z,65.69
2019-02-14T20:03:06.075Z,65.82
2019-02-14T20:08:16.557Z,65.88
2019-02-14T20:13:22.074Z,66.43
2019-02-14T20:18:31.632Z,66.70
2019-02-14T20:23:38.371Z,66.98
2019-02-14T20:28:44.722Z,66.51
2019-02-14T20:33:52.934Z,66.57
2019-02-14T20:38:58.712Z,67.06
2019-02-14T20:44:04.271Z,67.10
2019-02-14T20:49:12.158Z,67.07
2019-02-14T20:54:20.471Z,67.18
2019-02-14T20:59:34.493Z,67.61
2019-02-14T21:04:41.094Z,67.45
2019-02-14T21:09:49.791Z,67.43
2019-02-14T21:14:56.192Z,67.34
2019-02-14T21:20:05.746Z,67.71
2019-02-14T21:25:22.468Z,67.97
2019-02-14T21:30:42.910Z,68.47
2019-02-14T21:35:59.675Z,68.24
2019-02-14T21:41:05.876Z,68.41
2019-02-14T21:46:12.291Z,68.82
2019-02-14T21:51:26.735Z,68.22
2019-02-14T21:56:33.218Z,68.69
2019-02-14T22:01:40.015Z,68.89
2019-02-14T22:06:49.045Z,69.04
2019-02-14T22:11:58.154Z,69.48
2019-02-14T22:17:09.279Z,69.34
2019-02-14T22:22:15.468Z,69.73
2019-02-14T22:27:21.707Z,69.31
2019-02-14T22:32:28.912Z,69.50
2019-02-14T22:37:34.869Z,69.75
2019-02-14T22:42:47.401Z,69.98
2019-02-14T22:47:51.686Z,69.48
2019-02-14T22:52:59.877Z,69.50
2019-02-14T22:58:08.966Z,69.95
2019-02-14T23:03:18.303Z,70.15
2019-02-14T23:08:32.801Z,70.46
2019-02-14T23:13:38.661Z,70.26
2019-02-14T23:18:47.339Z,70.54
2019-02-14T23:23:55.846Z,70.29
2019-02-14T23:29:02.331Z,70.28
2019-02-14T23:34:10.698Z,70.18
2019-02-14T23:39:24.220Z,70.26
2019-02-14T23:44:32.349Z,70.21
2019-02-14T23:49:41.650Z,70.33
2019-02-14T23:55:11.849Z,70.30
